sensor_id;sensor_type;location;lat;lon;timestamp;P1;durP1;ratioP1;P2;durP2;ratioP2
74371;SDS011;62885;51.374;6.170;2023-04-01T00:01:56;2.40;;;0.70;;
74371;SDS011;62885;51.374;6.170;2023-04-01T00:04:22;1.42;;;0.70;;
74371;SDS011;62885;51.374;6.170;2023-04-01T00:06:47;3.05;;;0.90;;
74371;SDS011;62885;51.374;6.170;2023-04-01T00:09:13;4.80;;;1.45;;
74371;SDS011;62885;51.374;6.170;2023-04-01T00:11:39;1.80;;;0.68;;
74371;SDS011;62885;51.374;6.170;2023-04-01T00:14:05;1.55;;;0.65;;
74371;SDS011;62885;51.374;6.170;2023-04-01T00:16:31;2.25;;;0.77;;
74371;SDS011;62885;51.374;6.170;2023-04-01T00:18:56;2.38;;;0.77;;
74371;SDS011;62885;51.374;6.170;2023-04-01T00:21:22;2.28;;;0.60;;
74371;SDS011;62885;51.374;6.170;2023-04-01T00:23:48;3.15;;;0.80;;
74371;SDS011;62885;51.374;6.170;2023-04-01T00:26:14;5.35;;;0.90;;
74371;SDS011;62885;51.374;6.170;2023-04-01T00:28:43;2.88;;;0.52;;
74371;SDS011;62885;51.374;6.170;2023-04-01T00:31:10;1.77;;;0.50;;
74371;SDS011;62885;51.374;6.170;2023-04-01T00:33:36;0.75;;;0.45;;
74371;SDS011;62885;51.374;6.170;2023-04-01T00:36:12;2.45;;;0.85;;
74371;SDS011;62885;51.374;6.170;2023-04-01T00:38:38;1.60;;;0.77;;
74371;SDS011;62885;51.374;6.170;2023-04-01T00:41:05;1.55;;;0.60;;
74371;SDS011;62885;51.374;6.170;2023-04-01T00:43:31;1.55;;;0.80;;
74371;SDS011;62885;51.374;6.170;2023-04-01T00:45:57;1.13;;;0.50;;
74371;SDS011;62885;51.374;6.170;2023-04-01T00:48:23;4.50;;;0.60;;
74371;SDS011;62885;51.374;6.170;2023-04-01T00:50:53;2.13;;;0.50;;
74371;SDS011;62885;51.374;6.170;2023-04-01T00:56:16;3.60;;;0.52;;
74371;SDS011;62885;51.374;6.170;2023-04-01T00:58:56;2.80;;;0.57;;
74371;SDS011;62885;51.374;6.170;2023-04-01T01:01:25;0.47;;;0.40;;
74371;SDS011;62885;51.374;6.170;2023-04-01T01:03:52;0.80;;;0.50;;
74371;SDS011;62885;51.374;6.170;2023-04-01T01:12:00;0.75;;;0.25;;
74371;SDS011;62885;51.374;6.170;2023-04-01T01:14:55;1.77;;;0.65;;
74371;SDS011;62885;51.374;6.170;2023-04-01T01:22:40;1.38;;;0.40;;
74371;SDS011;62885;51.374;6.170;2023-04-01T01:30:51;1.55;;;0.30;;
74371;SDS011;62885;51.374;6.170;2023-04-01T01:33:33;1.05;;;0.50;;
74371;SDS011;62885;51.374;6.170;2023-04-01T01:36:09;0.95;;;0.52;;
74371;SDS011;62885;51.374;6.170;2023-04-01T01:38:37;4.47;;;0.50;;
74371;SDS011;62885;51.374;6.170;2023-04-01T01:41:04;1.30;;;0.20;;
74371;SDS011;62885;51.374;6.170;2023-04-01T01:43:36;1.35;;;0.68;;
74371;SDS011;62885;51.374;6.170;2023-04-01T01:46:26;0.32;;;0.25;;
74371;SDS011;62885;51.374;6.170;2023-04-01T01:48:51;1.50;;;0.60;;
74371;SDS011;62885;51.374;6.170;2023-04-01T01:51:20;3.70;;;0.80;;
74371;SDS011;62885;51.374;6.170;2023-04-01T01:53:48;0.63;;;0.30;;
74371;SDS011;62885;51.374;6.170;2023-04-01T01:56:14;1.00;;;0.20;;
74371;SDS011;62885;51.374;6.170;2023-04-01T01:58:44;0.35;;;0.32;;
74371;SDS011;62885;51.374;6.170;2023-04-01T02:01:16;2.25;;;1.10;;
74371;SDS011;62885;51.374;6.170;2023-04-01T02:03:45;2.35;;;0.80;;
74371;SDS011;62885;51.374;6.170;2023-04-01T02:06:14;3.47;;;1.42;;
74371;SDS011;62885;51.374;6.170;2023-04-01T02:08:44;1.70;;;0.65;;
74371;SDS011;62885;51.374;6.170;2023-04-01T02:11:15;2.95;;;0.77;;
74371;SDS011;62885;51.374;6.170;2023-04-01T02:13:55;0.80;;;0.50;;
74371;SDS011;62885;51.374;6.170;2023-04-01T02:16:49;1.20;;;0.38;;
74371;SDS011;62885;51.374;6.170;2023-04-01T02:19:39;0.20;;;0.20;;
74371;SDS011;62885;51.374;6.170;2023-04-01T02:22:11;1.92;;;0.60;;
74371;SDS011;62885;51.374;6.170;2023-04-01T02:24:41;0.90;;;0.22;;
74371;SDS011;62885;51.374;6.170;2023-04-01T02:27:09;1.67;;;0.73;;
74371;SDS011;62885;51.374;6.170;2023-04-01T02:29:35;1.55;;;0.57;;
74371;SDS011;62885;51.374;6.170;2023-04-01T02:32:01;2.88;;;0.55;;
74371;SDS011;62885;51.374;6.170;2023-04-01T02:34:27;2.40;;;0.80;;
74371;SDS011;62885;51.374;6.170;2023-04-01T02:36:53;1.23;;;0.60;;
74371;SDS011;62885;51.374;6.170;2023-04-01T02:39:20;1.30;;;0.60;;
74371;SDS011;62885;51.374;6.170;2023-04-01T02:41:45;2.45;;;0.80;;
74371;SDS011;62885;51.374;6.170;2023-04-01T02:44:12;3.60;;;1.27;;
74371;SDS011;62885;51.374;6.170;2023-04-01T02:46:39;1.73;;;0.80;;
74371;SDS011;62885;51.374;6.170;2023-04-01T02:49:05;2.10;;;0.80;;
74371;SDS011;62885;51.374;6.170;2023-04-01T02:51:31;1.70;;;0.70;;
74371;SDS011;62885;51.374;6.170;2023-04-01T02:53:56;1.63;;;0.93;;
74371;SDS011;62885;51.374;6.170;2023-04-01T02:56:22;1.77;;;0.90;;
74371;SDS011;62885;51.374;6.170;2023-04-01T02:58:47;2.10;;;0.60;;
74371;SDS011;62885;51.374;6.170;2023-04-01T03:01:13;3.47;;;0.80;;
74371;SDS011;62885;51.374;6.170;2023-04-01T03:03:39;3.03;;;0.90;;
74371;SDS011;62885;51.374;6.170;2023-04-01T03:06:09;2.65;;;0.70;;
74371;SDS011;62885;51.374;6.170;2023-04-01T03:08:36;1.27;;;0.80;;
74371;SDS011;62885;51.374;6.170;2023-04-01T03:11:01;1.63;;;0.80;;
74371;SDS011;62885;51.374;6.170;2023-04-01T03:13:27;2.65;;;1.00;;
74371;SDS011;62885;51.374;6.170;2023-04-01T03:15:52;1.42;;;0.80;;
74371;SDS011;62885;51.374;6.170;2023-04-01T03:18:18;1.88;;;0.70;;
74371;SDS011;62885;51.374;6.170;2023-04-01T03:20:43;1.77;;;0.65;;
74371;SDS011;62885;51.374;6.170;2023-04-01T03:23:09;1.85;;;0.82;;
74371;SDS011;62885;51.374;6.170;2023-04-01T03:25:34;1.25;;;0.70;;
74371;SDS011;62885;51.374;6.170;2023-04-01T03:28:00;2.90;;;1.30;;
74371;SDS011;62885;51.374;6.170;2023-04-01T03:30:26;1.77;;;0.80;;
74371;SDS011;62885;51.374;6.170;2023-04-01T03:32:51;1.50;;;0.80;;
74371;SDS011;62885;51.374;6.170;2023-04-01T03:35:17;2.78;;;1.30;;
74371;SDS011;62885;51.374;6.170;2023-04-01T03:37:42;1.48;;;0.80;;
74371;SDS011;62885;51.374;6.170;2023-04-01T03:40:08;2.03;;;1.17;;
74371;SDS011;62885;51.374;6.170;2023-04-01T03:42:34;1.10;;;0.73;;
74371;SDS011;62885;51.374;6.170;2023-04-01T03:45:00;2.25;;;1.17;;
74371;SDS011;62885;51.374;6.170;2023-04-01T03:47:25;2.25;;;1.15;;
74371;SDS011;62885;51.374;6.170;2023-04-01T03:49:51;2.72;;;1.30;;
74371;SDS011;62885;51.374;6.170;2023-04-01T03:52:16;3.33;;;1.33;;
74371;SDS011;62885;51.374;6.170;2023-04-01T03:54:41;3.88;;;1.60;;
74371;SDS011;62885;51.374;6.170;2023-04-01T03:57:07;4.95;;;1.77;;
74371;SDS011;62885;51.374;6.170;2023-04-01T03:59:32;3.85;;;1.63;;
74371;SDS011;62885;51.374;6.170;2023-04-01T04:01:58;3.67;;;1.55;;
74371;SDS011;62885;51.374;6.170;2023-04-01T04:04:23;3.67;;;1.80;;
74371;SDS011;62885;51.374;6.170;2023-04-01T04:06:48;3.67;;;1.50;;
74371;SDS011;62885;51.374;6.170;2023-04-01T04:09:14;2.95;;;1.58;;
74371;SDS011;62885;51.374;6.170;2023-04-01T04:11:39;4.28;;;1.50;;
74371;SDS011;62885;51.374;6.170;2023-04-01T04:14:05;2.45;;;1.33;;
74371;SDS011;62885;51.374;6.170;2023-04-01T04:16:30;4.00;;;1.40;;
74371;SDS011;62885;51.374;6.170;2023-04-01T04:18:55;2.65;;;1.40;;
74371;SDS011;62885;51.374;6.170;2023-04-01T04:21:21;2.80;;;1.40;;
74371;SDS011;62885;51.374;6.170;2023-04-01T04:23:46;2.60;;;1.40;;
74371;SDS011;62885;51.374;6.170;2023-04-01T04:26:13;2.92;;;1.25;;
74371;SDS011;62885;51.374;6.170;2023-04-01T04:28:39;6.88;;;1.52;;
74371;SDS011;62885;51.374;6.170;2023-04-01T04:31:05;4.40;;;1.23;;
74371;SDS011;62885;51.374;6.170;2023-04-01T04:33:31;3.15;;;1.52;;
74371;SDS011;62885;51.374;6.170;2023-04-01T04:35:57;3.40;;;1.85;;
74371;SDS011;62885;51.374;6.170;2023-04-01T04:38:24;3.40;;;1.55;;
74371;SDS011;62885;51.374;6.170;2023-04-01T04:40:50;3.55;;;1.85;;
74371;SDS011;62885;51.374;6.170;2023-04-01T04:43:16;3.38;;;1.75;;
74371;SDS011;62885;51.374;6.170;2023-04-01T04:45:42;2.97;;;1.50;;
74371;SDS011;62885;51.374;6.170;2023-04-01T04:48:08;3.75;;;2.00;;
74371;SDS011;62885;51.374;6.170;2023-04-01T04:50:34;3.75;;;1.65;;
74371;SDS011;62885;51.374;6.170;2023-04-01T04:53:00;5.47;;;2.05;;
74371;SDS011;62885;51.374;6.170;2023-04-01T04:55:26;5.88;;;2.33;;
74371;SDS011;62885;51.374;6.170;2023-04-01T04:57:51;3.63;;;2.00;;
74371;SDS011;62885;51.374;6.170;2023-04-01T05:00:16;4.70;;;2.00;;
74371;SDS011;62885;51.374;6.170;2023-04-01T05:02:42;4.47;;;2.17;;
74371;SDS011;62885;51.374;6.170;2023-04-01T05:05:08;4.43;;;2.40;;
74371;SDS011;62885;51.374;6.170;2023-04-01T05:07:33;5.68;;;2.65;;
74371;SDS011;62885;51.374;6.170;2023-04-01T05:09:59;5.22;;;2.65;;
74371;SDS011;62885;51.374;6.170;2023-04-01T05:12:25;5.45;;;2.50;;
74371;SDS011;62885;51.374;6.170;2023-04-01T05:14:50;6.22;;;3.08;;
74371;SDS011;62885;51.374;6.170;2023-04-01T05:17:16;5.78;;;3.10;;
74371;SDS011;62885;51.374;6.170;2023-04-01T05:19:41;5.88;;;2.85;;
74371;SDS011;62885;51.374;6.170;2023-04-01T05:22:06;7.07;;;3.00;;
74371;SDS011;62885;51.374;6.170;2023-04-01T05:24:32;6.68;;;2.80;;
74371;SDS011;62885;51.374;6.170;2023-04-01T05:26:58;5.72;;;3.00;;
74371;SDS011;62885;51.374;6.170;2023-04-01T05:29:24;6.15;;;3.22;;
74371;SDS011;62885;51.374;6.170;2023-04-01T05:31:50;7.57;;;3.45;;
74371;SDS011;62885;51.374;6.170;2023-04-01T05:34:16;5.95;;;3.08;;
74371;SDS011;62885;51.374;6.170;2023-04-01T05:36:41;6.15;;;3.20;;
74371;SDS011;62885;51.374;6.170;2023-04-01T05:39:08;7.82;;;3.40;;
74371;SDS011;62885;51.374;6.170;2023-04-01T05:41:37;7.50;;;4.07;;
74371;SDS011;62885;51.374;6.170;2023-04-01T05:44:03;7.75;;;3.30;;
74371;SDS011;62885;51.374;6.170;2023-04-01T05:46:29;6.35;;;3.30;;
74371;SDS011;62885;51.374;6.170;2023-04-01T05:48:55;7.55;;;5.00;;
74371;SDS011;62885;51.374;6.170;2023-04-01T05:51:20;6.75;;;3.45;;
74371;SDS011;62885;51.374;6.170;2023-04-01T05:53:45;6.82;;;3.40;;
74371;SDS011;62885;51.374;6.170;2023-04-01T05:56:11;6.57;;;3.50;;
74371;SDS011;62885;51.374;6.170;2023-04-01T05:58:36;6.32;;;3.15;;
74371;SDS011;62885;51.374;6.170;2023-04-01T06:01:06;6.30;;;3.10;;
74371;SDS011;62885;51.374;6.170;2023-04-01T06:03:33;6.50;;;3.45;;
74371;SDS011;62885;51.374;6.170;2023-04-01T06:05:59;7.05;;;3.30;;
74371;SDS011;62885;51.374;6.170;2023-04-01T06:08:26;7.03;;;3.10;;
74371;SDS011;62885;51.374;6.170;2023-04-01T06:19:04;5.93;;;3.23;;
74371;SDS011;62885;51.374;6.170;2023-04-01T06:22:16;6.68;;;3.22;;
74371;SDS011;62885;51.374;6.170;2023-04-01T06:34:57;6.35;;;3.13;;
74371;SDS011;62885;51.374;6.170;2023-04-01T06:53:58;5.10;;;2.53;;
74371;SDS011;62885;51.374;6.170;2023-04-01T06:56:30;6.72;;;2.95;;
74371;SDS011;62885;51.374;6.170;2023-04-01T06:58:58;5.45;;;2.83;;
74371;SDS011;62885;51.374;6.170;2023-04-01T07:06:59;5.90;;;3.20;;
74371;SDS011;62885;51.374;6.170;2023-04-01T07:09:34;7.03;;;2.97;;
74371;SDS011;62885;51.374;6.170;2023-04-01T07:12:09;6.68;;;3.22;;
74371;SDS011;62885;51.374;6.170;2023-04-01T07:14:41;6.10;;;2.72;;
74371;SDS011;62885;51.374;6.170;2023-04-01T07:20:14;5.55;;;2.25;;
74371;SDS011;62885;51.374;6.170;2023-04-01T07:22:48;6.00;;;2.58;;
74371;SDS011;62885;51.374;6.170;2023-04-01T07:25:24;3.60;;;1.83;;
74371;SDS011;62885;51.374;6.170;2023-04-01T07:27:53;4.72;;;2.20;;
74371;SDS011;62885;51.374;6.170;2023-04-01T07:30:25;4.47;;;2.22;;
74371;SDS011;62885;51.374;6.170;2023-04-01T07:35:40;5.95;;;2.42;;
74371;SDS011;62885;51.374;6.170;2023-04-01T07:41:00;6.43;;;2.50;;
74371;SDS011;62885;51.374;6.170;2023-04-01T07:43:56;5.10;;;2.30;;
74371;SDS011;62885;51.374;6.170;2023-04-01T07:51:53;5.25;;;2.25;;
74371;SDS011;62885;51.374;6.170;2023-04-01T07:54:40;5.43;;;2.63;;
74371;SDS011;62885;51.374;6.170;2023-04-01T08:00:13;5.25;;;2.50;;
74371;SDS011;62885;51.374;6.170;2023-04-01T08:08:23;5.05;;;2.40;;
74371;SDS011;62885;51.374;6.170;2023-04-01T08:10:58;6.13;;;3.15;;
74371;SDS011;62885;51.374;6.170;2023-04-01T08:16:12;5.65;;;2.70;;
74371;SDS011;62885;51.374;6.170;2023-04-01T08:21:47;5.85;;;2.58;;
74371;SDS011;62885;51.374;6.170;2023-04-01T08:24:25;6.00;;;3.00;;
74371;SDS011;62885;51.374;6.170;2023-04-01T08:26:57;8.65;;;3.35;;
74371;SDS011;62885;51.374;6.170;2023-04-01T08:29:31;7.68;;;3.53;;
74371;SDS011;62885;51.374;6.170;2023-04-01T08:34:34;8.32;;;3.50;;
74371;SDS011;62885;51.374;6.170;2023-04-01T08:37:11;8.93;;;3.92;;
74371;SDS011;62885;51.374;6.170;2023-04-01T08:39:50;9.27;;;3.90;;
74371;SDS011;62885;51.374;6.170;2023-04-01T08:45:53;8.00;;;3.78;;
74371;SDS011;62885;51.374;6.170;2023-04-01T08:50:54;9.38;;;4.20;;
74371;SDS011;62885;51.374;6.170;2023-04-01T08:56:00;9.10;;;4.30;;
74371;SDS011;62885;51.374;6.170;2023-04-01T09:01:14;10.20;;;4.30;;
74371;SDS011;62885;51.374;6.170;2023-04-01T09:07:11;10.10;;;5.05;;
74371;SDS011;62885;51.374;6.170;2023-04-01T09:12:48;10.98;;;5.13;;
74371;SDS011;62885;51.374;6.170;2023-04-01T09:21:24;11.90;;;6.65;;
74371;SDS011;62885;51.374;6.170;2023-04-01T09:40:53;12.32;;;5.63;;
74371;SDS011;62885;51.374;6.170;2023-04-01T09:44:13;12.57;;;5.72;;
74371;SDS011;62885;51.374;6.170;2023-04-01T10:25:12;12.23;;;6.00;;
74371;SDS011;62885;51.374;6.170;2023-04-01T10:28:24;10.23;;;5.68;;
74371;SDS011;62885;51.374;6.170;2023-04-01T10:36:52;12.98;;;6.18;;
74371;SDS011;62885;51.374;6.170;2023-04-01T10:45:06;10.95;;;5.68;;
74371;SDS011;62885;51.374;6.170;2023-04-01T10:53:45;8.88;;;4.57;;
74371;SDS011;62885;51.374;6.170;2023-04-01T10:56:15;9.35;;;4.63;;
74371;SDS011;62885;51.374;6.170;2023-04-01T11:01:40;8.75;;;3.90;;
74371;SDS011;62885;51.374;6.170;2023-04-01T11:04:35;6.95;;;3.50;;
74371;SDS011;62885;51.374;6.170;2023-04-01T11:13:13;6.68;;;2.80;;
74371;SDS011;62885;51.374;6.170;2023-04-01T11:32:54;10.20;;;4.78;;
74371;SDS011;62885;51.374;6.170;2023-04-01T11:41:23;9.18;;;4.85;;
74371;SDS011;62885;51.374;6.170;2023-04-01T11:43:58;9.30;;;4.22;;
74371;SDS011;62885;51.374;6.170;2023-04-01T12:10:59;8.38;;;3.85;;
74371;SDS011;62885;51.374;6.170;2023-04-01T12:19:25;9.60;;;4.53;;
74371;SDS011;62885;51.374;6.170;2023-04-01T12:35:35;7.95;;;3.30;;
74371;SDS011;62885;51.374;6.170;2023-04-01T12:38:18;6.72;;;2.97;;
74371;SDS011;62885;51.374;6.170;2023-04-01T12:43:57;6.72;;;3.45;;
74371;SDS011;62885;51.374;6.170;2023-04-01T12:54:43;7.25;;;3.33;;
74371;SDS011;62885;51.374;6.170;2023-04-01T12:57:39;6.80;;;3.33;;
74371;SDS011;62885;51.374;6.170;2023-04-01T13:00:02;6.88;;;3.05;;
74371;SDS011;62885;51.374;6.170;2023-04-01T13:02:38;7.47;;;3.13;;
74371;SDS011;62885;51.374;6.170;2023-04-01T13:14:08;5.68;;;3.20;;
74371;SDS011;62885;51.374;6.170;2023-04-01T13:16:46;7.75;;;3.53;;
74371;SDS011;62885;51.374;6.170;2023-04-01T13:20:23;5.15;;;2.40;;
74371;SDS011;62885;51.374;6.170;2023-04-01T13:37:58;6.18;;;2.60;;
74371;SDS011;62885;51.374;6.170;2023-04-01T13:43:24;4.40;;;2.05;;
74371;SDS011;62885;51.374;6.170;2023-04-01T13:57:32;3.95;;;1.85;;
74371;SDS011;62885;51.374;6.170;2023-04-01T14:03:07;4.47;;;1.63;;
74371;SDS011;62885;51.374;6.170;2023-04-01T14:05:42;3.53;;;1.90;;
74371;SDS011;62885;51.374;6.170;2023-04-01T14:08:32;4.78;;;2.00;;
74371;SDS011;62885;51.374;6.170;2023-04-01T14:19:57;3.88;;;1.70;;
74371;SDS011;62885;51.374;6.170;2023-04-01T14:25:29;3.58;;;1.73;;
74371;SDS011;62885;51.374;6.170;2023-04-01T14:28:31;3.72;;;1.73;;
74371;SDS011;62885;51.374;6.170;2023-04-01T14:34:33;3.65;;;1.92;;
74371;SDS011;62885;51.374;6.170;2023-04-01T14:51:32;3.25;;;1.65;;
74371;SDS011;62885;51.374;6.170;2023-04-01T14:54:04;4.53;;;1.83;;
74371;SDS011;62885;51.374;6.170;2023-04-01T14:59:14;5.20;;;2.33;;
74371;SDS011;62885;51.374;6.170;2023-04-01T15:07:47;3.47;;;1.67;;
74371;SDS011;62885;51.374;6.170;2023-04-01T15:16:33;4.15;;;2.00;;
74371;SDS011;62885;51.374;6.170;2023-04-01T15:30:33;6.00;;;2.20;;
74371;SDS011;62885;51.374;6.170;2023-04-01T15:51:11;3.65;;;1.85;;
74371;SDS011;62885;51.374;6.170;2023-04-01T16:04:47;5.00;;;2.30;;
74371;SDS011;62885;51.374;6.170;2023-04-01T16:12:18;6.05;;;2.90;;
74371;SDS011;62885;51.374;6.170;2023-04-01T16:15:26;4.68;;;2.13;;
74371;SDS011;62885;51.374;6.170;2023-04-01T16:20:55;4.05;;;2.05;;
74371;SDS011;62885;51.374;6.170;2023-04-01T16:23:28;3.38;;;1.88;;
74371;SDS011;62885;51.374;6.170;2023-04-01T16:26:18;6.53;;;2.10;;
74371;SDS011;62885;51.374;6.170;2023-04-01T16:31:43;4.47;;;2.30;;
74371;SDS011;62885;51.374;6.170;2023-04-01T16:45:35;4.18;;;2.22;;
74371;SDS011;62885;51.374;6.170;2023-04-01T16:48:14;4.45;;;2.17;;
74371;SDS011;62885;51.374;6.170;2023-04-01T16:50:53;5.88;;;2.97;;
74371;SDS011;62885;51.374;6.170;2023-04-01T16:53:26;4.90;;;2.65;;
74371;SDS011;62885;51.374;6.170;2023-04-01T16:58:37;7.05;;;2.72;;
74371;SDS011;62885;51.374;6.170;2023-04-01T17:01:25;6.57;;;2.72;;
74371;SDS011;62885;51.374;6.170;2023-04-01T17:04:00;4.70;;;2.60;;
74371;SDS011;62885;51.374;6.170;2023-04-01T17:06:38;4.82;;;2.60;;
74371;SDS011;62885;51.374;6.170;2023-04-01T17:14:46;6.75;;;3.22;;
74371;SDS011;62885;51.374;6.170;2023-04-01T17:22:54;5.97;;;3.10;;
74371;SDS011;62885;51.374;6.170;2023-04-01T17:25:34;7.82;;;2.78;;
74371;SDS011;62885;51.374;6.170;2023-04-01T17:42:10;5.47;;;3.25;;
74371;SDS011;62885;51.374;6.170;2023-04-01T17:50:14;6.00;;;2.88;;
74371;SDS011;62885;51.374;6.170;2023-04-01T17:53:02;5.32;;;2.88;;
74371;SDS011;62885;51.374;6.170;2023-04-01T17:58:29;6.03;;;2.80;;
74371;SDS011;62885;51.374;6.170;2023-04-01T18:11:39;6.47;;;3.13;;
74371;SDS011;62885;51.374;6.170;2023-04-01T18:23:00;7.63;;;3.33;;
74371;SDS011;62885;51.374;6.170;2023-04-01T18:25:38;6.07;;;3.38;;
74371;SDS011;62885;51.374;6.170;2023-04-01T18:30:51;5.95;;;2.95;;
74371;SDS011;62885;51.374;6.170;2023-04-01T18:36:03;5.63;;;2.45;;
74371;SDS011;62885;51.374;6.170;2023-04-01T18:38:40;4.75;;;2.25;;
74371;SDS011;62885;51.374;6.170;2023-04-01T18:52:45;4.30;;;2.35;;
74371;SDS011;62885;51.374;6.170;2023-04-01T18:55:29;5.13;;;2.42;;
74371;SDS011;62885;51.374;6.170;2023-04-01T19:00:41;5.35;;;2.55;;
74371;SDS011;62885;51.374;6.170;2023-04-01T19:03:21;7.85;;;3.00;;
74371;SDS011;62885;51.374;6.170;2023-04-01T19:05:52;5.72;;;2.65;;
74371;SDS011;62885;51.374;6.170;2023-04-01T19:08:34;5.22;;;2.75;;
74371;SDS011;62885;51.374;6.170;2023-04-01T19:17:02;4.80;;;2.17;;
74371;SDS011;62885;51.374;6.170;2023-04-01T19:24:47;4.32;;;1.90;;
74371;SDS011;62885;51.374;6.170;2023-04-01T19:38:39;3.92;;;1.85;;
74371;SDS011;62885;51.374;6.170;2023-04-01T19:46:54;4.20;;;2.20;;
74371;SDS011;62885;51.374;6.170;2023-04-01T19:49:57;3.15;;;1.67;;
74371;SDS011;62885;51.374;6.170;2023-04-01T19:52:37;4.50;;;2.20;;
74371;SDS011;62885;51.374;6.170;2023-04-01T19:55:17;4.57;;;2.03;;
74371;SDS011;62885;51.374;6.170;2023-04-01T20:00:52;4.88;;;2.15;;
74371;SDS011;62885;51.374;6.170;2023-04-01T20:03:55;3.47;;;1.90;;
74371;SDS011;62885;51.374;6.170;2023-04-01T20:07:03;4.43;;;2.33;;
74371;SDS011;62885;51.374;6.170;2023-04-01T20:14:57;4.18;;;1.88;;
74371;SDS011;62885;51.374;6.170;2023-04-01T20:17:27;3.92;;;1.92;;
74371;SDS011;62885;51.374;6.170;2023-04-01T20:19:59;3.65;;;1.85;;
74371;SDS011;62885;51.374;6.170;2023-04-01T20:28:11;6.13;;;2.40;;
74371;SDS011;62885;51.374;6.170;2023-04-01T20:41:28;3.63;;;1.80;;
74371;SDS011;62885;51.374;6.170;2023-04-01T20:50:00;4.72;;;1.67;;
74371;SDS011;62885;51.374;6.170;2023-04-01T20:52:41;2.55;;;1.50;;
74371;SDS011;62885;51.374;6.170;2023-04-01T20:55:20;3.10;;;1.50;;
74371;SDS011;62885;51.374;6.170;2023-04-01T21:00:47;3.42;;;1.77;;
74371;SDS011;62885;51.374;6.170;2023-04-01T21:16:52;3.03;;;1.48;;
74371;SDS011;62885;51.374;6.170;2023-04-01T21:19:44;2.65;;;1.45;;
74371;SDS011;62885;51.374;6.170;2023-04-01T21:32:43;3.00;;;1.50;;
74371;SDS011;62885;51.374;6.170;2023-04-01T21:35:19;2.78;;;1.75;;
74371;SDS011;62885;51.374;6.170;2023-04-01T21:49:05;2.05;;;1.02;;
74371;SDS011;62885;51.374;6.170;2023-04-01T22:00:25;2.58;;;1.50;;
74371;SDS011;62885;51.374;6.170;2023-04-01T22:16:31;3.58;;;2.00;;
74371;SDS011;62885;51.374;6.170;2023-04-01T22:21:57;4.05;;;2.17;;
74371;SDS011;62885;51.374;6.170;2023-04-01T22:32:31;3.50;;;2.00;;
74371;SDS011;62885;51.374;6.170;2023-04-01T22:40:35;4.38;;;2.33;;
74371;SDS011;62885;51.374;6.170;2023-04-01T22:43:37;4.50;;;2.42;;
74371;SDS011;62885;51.374;6.170;2023-04-01T22:54:20;4.32;;;2.35;;
74371;SDS011;62885;51.374;6.170;2023-04-01T22:57:00;4.32;;;2.20;;
74371;SDS011;62885;51.374;6.170;2023-04-01T23:02:14;4.88;;;2.55;;
74371;SDS011;62885;51.374;6.170;2023-04-01T23:04:47;4.85;;;2.67;;
74371;SDS011;62885;51.374;6.170;2023-04-01T23:10:53;11.30;;;2.50;;
74371;SDS011;62885;51.374;6.170;2023-04-01T23:13:16;3.60;;;1.90;;
74371;SDS011;62885;51.374;6.170;2023-04-01T23:15:45;4.97;;;2.58;;
74371;SDS011;62885;51.374;6.170;2023-04-01T23:26:39;5.05;;;2.47;;
74371;SDS011;62885;51.374;6.170;2023-04-01T23:29:19;5.68;;;2.75;;
74371;SDS011;62885;51.374;6.170;2023-04-01T23:31:58;5.45;;;3.00;;
74371;SDS011;62885;51.374;6.170;2023-04-01T23:34:27;5.57;;;2.75;;
74371;SDS011;62885;51.374;6.170;2023-04-01T23:36:56;5.82;;;2.72;;
74371;SDS011;62885;51.374;6.170;2023-04-01T23:42:13;4.22;;;2.45;;
74371;SDS011;62885;51.374;6.170;2023-04-01T23:44:39;4.60;;;2.58;;
74371;SDS011;62885;51.374;6.170;2023-04-01T23:47:05;4.18;;;2.25;;
74371;SDS011;62885;51.374;6.170;2023-04-01T23:49:38;5.38;;;2.63;;
74371;SDS011;62885;51.374;6.170;2023-04-01T23:52:13;5.25;;;2.72;;
74371;SDS011;62885;51.374;6.170;2023-04-01T23:54:49;4.40;;;1.95;;
74371;SDS011;62885;51.374;6.170;2023-04-01T23:57:23;6.00;;;2.63;;
74371;SDS011;62885;51.374;6.170;2023-04-01T23:59:59;4.75;;;2.47;;
